sensor_id;sensor_type;location;lat;lon;timestamp;temperature;humidity
50013;DHT22;35901;48.694;9.476;2023-05-15T00:02:05;10.00;99.90
50013;DHT22;35901;48.694;9.476;2023-05-15T00:04:31;10.10;99.90
50013;DHT22;35901;48.694;9.476;2023-05-15T00:06:57;10.10;99.90
50013;DHT22;35901;48.694;9.476;2023-05-15T00:09:22;10.10;99.90
50013;DHT22;35901;48.694;9.476;2023-05-15T00:11:49;10.10;99.90
50013;DHT22;35901;48.694;9.476;2023-05-15T00:14:15;10.00;99.90
50013;DHT22;35901;48.694;9.476;2023-05-15T00:16:41;10.00;99.90
50013;DHT22;35901;48.694;9.476;2023-05-15T00:19:07;9.90;99.90
50013;DHT22;35901;48.694;9.476;2023-05-15T00:21:32;9.90;99.90
50013;DHT22;35901;48.694;9.476;2023-05-15T00:23:58;9.80;99.90
50013;DHT22;35901;48.694;9.476;2023-05-15T00:26:25;9.70;99.90
50013;DHT22;35901;48.694;9.476;2023-05-15T00:28:51;9.60;99.90
50013;DHT22;35901;48.694;9.476;2023-05-15T00:31:20;9.60;99.90
50013;DHT22;35901;48.694;9.476;2023-05-15T00:33:45;9.50;99.90
50013;DHT22;35901;48.694;9.476;2023-05-15T00:36:11;9.50;99.90
50013;DHT22;35901;48.694;9.476;2023-05-15T00:38:37;9.50;99.90
50013;DHT22;35901;48.694;9.476;2023-05-15T00:41:05;9.50;99.90
50013;DHT22;35901;48.694;9.476;2023-05-15T00:43:31;9.50;99.90
50013;DHT22;35901;48.694;9.476;2023-05-15T00:45:58;9.50;99.90
50013;DHT22;35901;48.694;9.476;2023-05-15T00:48:25;9.50;99.90
50013;DHT22;35901;48.694;9.476;2023-05-15T00:50:52;9.50;99.90
50013;DHT22;35901;48.694;9.476;2023-05-15T00:53:18;9.50;99.90
50013;DHT22;35901;48.694;9.476;2023-05-15T00:55:45;9.50;99.90
50013;DHT22;35901;48.694;9.476;2023-05-15T00:58:13;9.40;99.90
50013;DHT22;35901;48.694;9.476;2023-05-15T01:00:41;9.40;99.90
50013;DHT22;35901;48.694;9.476;2023-05-15T01:03:07;9.40;99.90
50013;DHT22;35901;48.694;9.476;2023-05-15T01:05:33;9.40;99.90
50013;DHT22;35901;48.694;9.476;2023-05-15T01:08:25;9.50;99.90
50013;DHT22;35901;48.694;9.476;2023-05-15T01:10:51;9.50;99.90
50013;DHT22;35901;48.694;9.476;2023-05-15T01:13:21;9.50;99.90
50013;DHT22;35901;48.694;9.476;2023-05-15T01:15:48;9.50;99.90
50013;DHT22;35901;48.694;9.476;2023-05-15T01:18:14;9.50;99.90
50013;DHT22;35901;48.694;9.476;2023-05-15T01:21:00;9.60;99.90
50013;DHT22;35901;48.694;9.476;2023-05-15T01:23:59;9.50;99.90
50013;DHT22;35901;48.694;9.476;2023-05-15T01:31:57;9.60;99.90
50013;DHT22;35901;48.694;9.476;2023-05-15T01:34:31;9.60;99.90
50013;DHT22;35901;48.694;9.476;2023-05-15T01:37:02;9.60;99.90
50013;DHT22;35901;48.694;9.476;2023-05-15T01:39:32;9.50;99.90
50013;DHT22;35901;48.694;9.476;2023-05-15T01:42:03;9.50;99.90
50013;DHT22;35901;48.694;9.476;2023-05-15T01:44:33;9.40;99.90
50013;DHT22;35901;48.694;9.476;2023-05-15T01:47:05;9.40;99.90
50013;DHT22;35901;48.694;9.476;2023-05-15T01:49:32;9.40;99.90
50013;DHT22;35901;48.694;9.476;2023-05-15T01:52:13;9.40;99.90
50013;DHT22;35901;48.694;9.476;2023-05-15T01:54:41;9.40;99.90
50013;DHT22;35901;48.694;9.476;2023-05-15T01:57:08;9.40;99.90
50013;DHT22;35901;48.694;9.476;2023-05-15T01:59:35;9.40;99.90
50013;DHT22;35901;48.694;9.476;2023-05-15T02:02:03;9.40;99.90
50013;DHT22;35901;48.694;9.476;2023-05-15T02:04:29;9.40;99.90
50013;DHT22;35901;48.694;9.476;2023-05-15T02:06:55;9.40;99.90
50013;DHT22;35901;48.694;9.476;2023-05-15T02:09:21;9.40;99.90
50013;DHT22;35901;48.694;9.476;2023-05-15T02:11:48;9.40;99.90
50013;DHT22;35901;48.694;9.476;2023-05-15T02:14:15;9.40;99.90
50013;DHT22;35901;48.694;9.476;2023-05-15T02:16:42;9.40;99.90
50013;DHT22;35901;48.694;9.476;2023-05-15T02:19:07;9.40;99.90
50013;DHT22;35901;48.694;9.476;2023-05-15T02:21:34;9.40;99.90
50013;DHT22;35901;48.694;9.476;2023-05-15T02:24:00;9.30;99.90
50013;DHT22;35901;48.694;9.476;2023-05-15T02:26:35;9.30;99.90
50013;DHT22;35901;48.694;9.476;2023-05-15T02:29:24;9.30;99.90
50013;DHT22;35901;48.694;9.476;2023-05-15T02:37:20;9.20;99.90
50013;DHT22;35901;48.694;9.476;2023-05-15T02:39:48;9.20;99.90
50013;DHT22;35901;48.694;9.476;2023-05-15T02:42:18;9.20;99.90
50013;DHT22;35901;48.694;9.476;2023-05-15T02:44:46;9.20;99.90
50013;DHT22;35901;48.694;9.476;2023-05-15T02:47:13;9.20;99.90
50013;DHT22;35901;48.694;9.476;2023-05-15T02:49:39;9.20;99.90
50013;DHT22;35901;48.694;9.476;2023-05-15T02:52:05;9.20;99.90
50013;DHT22;35901;48.694;9.476;2023-05-15T02:54:31;9.20;99.90
50013;DHT22;35901;48.694;9.476;2023-05-15T02:56:57;9.20;99.90
50013;DHT22;35901;48.694;9.476;2023-05-15T02:59:22;9.20;99.90
50013;DHT22;35901;48.694;9.476;2023-05-15T03:01:48;9.20;99.90
50013;DHT22;35901;48.694;9.476;2023-05-15T03:04:14;9.20;99.90
50013;DHT22;35901;48.694;9.476;2023-05-15T03:06:39;9.20;99.90
50013;DHT22;35901;48.694;9.476;2023-05-15T03:09:05;9.10;99.90
50013;DHT22;35901;48.694;9.476;2023-05-15T03:11:31;9.20;99.90
50013;DHT22;35901;48.694;9.476;2023-05-15T03:13:56;9.20;99.90
50013;DHT22;35901;48.694;9.476;2023-05-15T03:16:25;9.10;99.90
50013;DHT22;35901;48.694;9.476;2023-05-15T03:18:51;9.10;99.90
50013;DHT22;35901;48.694;9.476;2023-05-15T03:21:17;9.10;99.90
50013;DHT22;35901;48.694;9.476;2023-05-15T03:23:43;9.10;99.90
50013;DHT22;35901;48.694;9.476;2023-05-15T03:26:09;9.10;99.90
50013;DHT22;35901;48.694;9.476;2023-05-15T03:28:34;9.00;99.90
50013;DHT22;35901;48.694;9.476;2023-05-15T03:31:00;9.00;99.90
50013;DHT22;35901;48.694;9.476;2023-05-15T03:33:26;9.00;99.90
50013;DHT22;35901;48.694;9.476;2023-05-15T03:35:51;9.00;99.90
50013;DHT22;35901;48.694;9.476;2023-05-15T03:38:18;9.00;99.90
50013;DHT22;35901;48.694;9.476;2023-05-15T03:40:43;9.00;99.90
50013;DHT22;35901;48.694;9.476;2023-05-15T03:43:09;9.00;99.90
50013;DHT22;35901;48.694;9.476;2023-05-15T03:45:35;9.00;99.90
50013;DHT22;35901;48.694;9.476;2023-05-15T03:48:01;9.00;99.90
50013;DHT22;35901;48.694;9.476;2023-05-15T03:50:27;8.90;99.90
50013;DHT22;35901;48.694;9.476;2023-05-15T03:52:53;8.90;99.90
50013;DHT22;35901;48.694;9.476;2023-05-15T03:55:19;9.00;99.90
50013;DHT22;35901;48.694;9.476;2023-05-15T03:57:44;9.00;99.90
50013;DHT22;35901;48.694;9.476;2023-05-15T04:00:11;9.00;99.90
50013;DHT22;35901;48.694;9.476;2023-05-15T04:02:37;9.00;99.90
50013;DHT22;35901;48.694;9.476;2023-05-15T04:05:04;9.10;99.90
50013;DHT22;35901;48.694;9.476;2023-05-15T04:07:32;9.10;99.90
50013;DHT22;35901;48.694;9.476;2023-05-15T04:09:58;9.10;99.90
50013;DHT22;35901;48.694;9.476;2023-05-15T04:12:30;9.10;99.90
50013;DHT22;35901;48.694;9.476;2023-05-15T04:14:58;9.10;99.90
50013;DHT22;35901;48.694;9.476;2023-05-15T04:17:24;9.20;99.90
50013;DHT22;35901;48.694;9.476;2023-05-15T04:19:50;9.20;99.90
50013;DHT22;35901;48.694;9.476;2023-05-15T04:22:15;9.20;99.90
50013;DHT22;35901;48.694;9.476;2023-05-15T04:24:41;9.30;99.90
50013;DHT22;35901;48.694;9.476;2023-05-15T04:27:06;9.40;99.90
50013;DHT22;35901;48.694;9.476;2023-05-15T04:29:33;9.40;99.90
50013;DHT22;35901;48.694;9.476;2023-05-15T04:31:59;9.50;99.90
50013;DHT22;35901;48.694;9.476;2023-05-15T04:34:24;9.60;99.90
50013;DHT22;35901;48.694;9.476;2023-05-15T04:36:50;9.70;99.90
50013;DHT22;35901;48.694;9.476;2023-05-15T04:39:16;9.70;99.90
50013;DHT22;35901;48.694;9.476;2023-05-15T04:41:41;9.80;99.90
50013;DHT22;35901;48.694;9.476;2023-05-15T04:44:07;9.90;99.90
50013;DHT22;35901;48.694;9.476;2023-05-15T04:46:33;10.00;99.90
50013;DHT22;35901;48.694;9.476;2023-05-15T04:49:01;10.00;99.90
50013;DHT22;35901;48.694;9.476;2023-05-15T04:51:27;10.00;99.90
50013;DHT22;35901;48.694;9.476;2023-05-15T04:53:52;10.00;99.90
50013;DHT22;35901;48.694;9.476;2023-05-15T04:56:18;10.00;99.90
50013;DHT22;35901;48.694;9.476;2023-05-15T04:58:43;10.10;99.90
50013;DHT22;35901;48.694;9.476;2023-05-15T05:01:09;10.10;99.90
50013;DHT22;35901;48.694;9.476;2023-05-15T05:03:35;10.10;99.90
50013;DHT22;35901;48.694;9.476;2023-05-15T05:06:00;10.10;99.90
50013;DHT22;35901;48.694;9.476;2023-05-15T05:08:26;10.10;99.90
50013;DHT22;35901;48.694;9.476;2023-05-15T05:10:57;10.10;99.90
50013;DHT22;35901;48.694;9.476;2023-05-15T05:13:23;10.10;99.90
50013;DHT22;35901;48.694;9.476;2023-05-15T05:15:49;10.20;99.90
50013;DHT22;35901;48.694;9.476;2023-05-15T05:18:14;10.30;99.90
50013;DHT22;35901;48.694;9.476;2023-05-15T05:20:40;10.30;99.90
50013;DHT22;35901;48.694;9.476;2023-05-15T05:23:05;10.40;99.90
50013;DHT22;35901;48.694;9.476;2023-05-15T05:25:31;10.50;99.90
50013;DHT22;35901;48.694;9.476;2023-05-15T05:27:57;10.60;99.90
50013;DHT22;35901;48.694;9.476;2023-05-15T05:30:22;10.70;99.90
50013;DHT22;35901;48.694;9.476;2023-05-15T05:32:48;10.90;99.90
50013;DHT22;35901;48.694;9.476;2023-05-15T05:35:14;11.20;99.90
50013;DHT22;35901;48.694;9.476;2023-05-15T05:37:39;11.30;99.90
50013;DHT22;35901;48.694;9.476;2023-05-15T05:40:06;11.50;99.90
50013;DHT22;35901;48.694;9.476;2023-05-15T05:42:33;11.60;99.90
50013;DHT22;35901;48.694;9.476;2023-05-15T05:44:58;11.80;99.90
50013;DHT22;35901;48.694;9.476;2023-05-15T05:47:24;11.80;99.90
50013;DHT22;35901;48.694;9.476;2023-05-15T05:49:50;11.90;99.90
50013;DHT22;35901;48.694;9.476;2023-05-15T05:52:16;12.00;99.90
50013;DHT22;35901;48.694;9.476;2023-05-15T05:54:42;12.10;99.90
50013;DHT22;35901;48.694;9.476;2023-05-15T05:57:10;12.20;99.90
50013;DHT22;35901;48.694;9.476;2023-05-15T05:59:35;12.40;99.90
50013;DHT22;35901;48.694;9.476;2023-05-15T06:02:02;12.60;99.90
50013;DHT22;35901;48.694;9.476;2023-05-15T06:04:28;12.80;99.90
50013;DHT22;35901;48.694;9.476;2023-05-15T06:06:53;13.10;99.90
50013;DHT22;35901;48.694;9.476;2023-05-15T06:09:19;13.30;99.90
50013;DHT22;35901;48.694;9.476;2023-05-15T06:11:45;13.90;99.90
50013;DHT22;35901;48.694;9.476;2023-05-15T06:14:11;14.00;99.90
50013;DHT22;35901;48.694;9.476;2023-05-15T06:16:36;14.10;99.90
50013;DHT22;35901;48.694;9.476;2023-05-15T06:19:02;14.20;99.90
50013;DHT22;35901;48.694;9.476;2023-05-15T06:21:28;14.20;99.90
50013;DHT22;35901;48.694;9.476;2023-05-15T06:23:53;14.20;99.90
50013;DHT22;35901;48.694;9.476;2023-05-15T06:26:19;14.50;99.90
50013;DHT22;35901;48.694;9.476;2023-05-15T06:28:46;14.40;99.90
50013;DHT22;35901;48.694;9.476;2023-05-15T06:31:11;14.20;99.90
50013;DHT22;35901;48.694;9.476;2023-05-15T06:33:37;14.10;99.90
50013;DHT22;35901;48.694;9.476;2023-05-15T06:36:03;14.50;99.90
50013;DHT22;35901;48.694;9.476;2023-05-15T06:38:28;15.00;99.90
50013;DHT22;35901;48.694;9.476;2023-05-15T06:40:54;15.60;99.90
50013;DHT22;35901;48.694;9.476;2023-05-15T06:43:20;16.10;99.90
50013;DHT22;35901;48.694;9.476;2023-05-15T06:45:45;16.10;99.90
50013;DHT22;35901;48.694;9.476;2023-05-15T06:48:11;15.90;99.90
50013;DHT22;35901;48.694;9.476;2023-05-15T06:50:37;15.50;99.90
50013;DHT22;35901;48.694;9.476;2023-05-15T06:53:02;15.20;99.90
50013;DHT22;35901;48.694;9.476;2023-05-15T06:55:28;15.00;99.90
50013;DHT22;35901;48.694;9.476;2023-05-15T06:57:53;14.80;99.90
50013;DHT22;35901;48.694;9.476;2023-05-15T07:00:19;14.80;99.90
50013;DHT22;35901;48.694;9.476;2023-05-15T07:02:45;14.90;99.90
50013;DHT22;35901;48.694;9.476;2023-05-15T07:05:11;15.40;99.90
50013;DHT22;35901;48.694;9.476;2023-05-15T07:07:36;16.10;99.90
50013;DHT22;35901;48.694;9.476;2023-05-15T07:10:02;16.40;99.90
50013;DHT22;35901;48.694;9.476;2023-05-15T07:12:28;16.90;99.90
50013;DHT22;35901;48.694;9.476;2023-05-15T07:14:53;17.10;99.90
50013;DHT22;35901;48.694;9.476;2023-05-15T07:17:19;17.30;99.90
50013;DHT22;35901;48.694;9.476;2023-05-15T07:19:45;17.50;99.90
50013;DHT22;35901;48.694;9.476;2023-05-15T07:22:11;17.80;99.90
50013;DHT22;35901;48.694;9.476;2023-05-15T07:24:36;17.90;99.90
50013;DHT22;35901;48.694;9.476;2023-05-15T07:27:03;18.20;99.90
50013;DHT22;35901;48.694;9.476;2023-05-15T07:29:29;18.30;99.90
50013;DHT22;35901;48.694;9.476;2023-05-15T07:31:55;18.50;99.90
50013;DHT22;35901;48.694;9.476;2023-05-15T07:34:20;18.30;99.90
50013;DHT22;35901;48.694;9.476;2023-05-15T07:36:46;18.00;99.90
50013;DHT22;35901;48.694;9.476;2023-05-15T07:39:12;17.90;99.90
50013;DHT22;35901;48.694;9.476;2023-05-15T07:41:38;17.70;99.90
50013;DHT22;35901;48.694;9.476;2023-05-15T07:44:03;17.50;99.90
50013;DHT22;35901;48.694;9.476;2023-05-15T07:46:29;17.60;99.90
50013;DHT22;35901;48.694;9.476;2023-05-15T07:48:55;17.70;99.90
50013;DHT22;35901;48.694;9.476;2023-05-15T07:51:20;17.90;99.90
50013;DHT22;35901;48.694;9.476;2023-05-15T07:53:46;18.00;99.90
50013;DHT22;35901;48.694;9.476;2023-05-15T07:56:12;18.10;99.90
50013;DHT22;35901;48.694;9.476;2023-05-15T07:58:37;18.40;99.90
50013;DHT22;35901;48.694;9.476;2023-05-15T08:01:04;18.60;99.90
50013;DHT22;35901;48.694;9.476;2023-05-15T08:03:30;18.80;99.90
50013;DHT22;35901;48.694;9.476;2023-05-15T08:05:56;18.50;99.90
50013;DHT22;35901;48.694;9.476;2023-05-15T08:08:21;18.40;99.90
50013;DHT22;35901;48.694;9.476;2023-05-15T08:10:47;18.20;99.90
50013;DHT22;35901;48.694;9.476;2023-05-15T08:13:12;17.90;99.90
50013;DHT22;35901;48.694;9.476;2023-05-15T08:15:38;17.80;99.90
50013;DHT22;35901;48.694;9.476;2023-05-15T08:18:07;18.20;99.90
50013;DHT22;35901;48.694;9.476;2023-05-15T08:20:34;18.20;99.90
50013;DHT22;35901;48.694;9.476;2023-05-15T08:23:00;18.20;99.90
50013;DHT22;35901;48.694;9.476;2023-05-15T08:25:26;18.70;99.90
50013;DHT22;35901;48.694;9.476;2023-05-15T08:27:51;19.30;99.90
50013;DHT22;35901;48.694;9.476;2023-05-15T08:30:17;19.70;99.90
50013;DHT22;35901;48.694;9.476;2023-05-15T08:32:43;19.70;99.90
50013;DHT22;35901;48.694;9.476;2023-05-15T08:35:11;19.30;99.90
50013;DHT22;35901;48.694;9.476;2023-05-15T08:37:37;18.80;99.90
50013;DHT22;35901;48.694;9.476;2023-05-15T08:40:03;18.40;99.90
50013;DHT22;35901;48.694;9.476;2023-05-15T08:42:44;18.00;99.90
50013;DHT22;35901;48.694;9.476;2023-05-15T08:45:11;17.60;99.90
50013;DHT22;35901;48.694;9.476;2023-05-15T08:47:39;17.40;99.90
50013;DHT22;35901;48.694;9.476;2023-05-15T08:50:15;17.30;99.90
50013;DHT22;35901;48.694;9.476;2023-05-15T08:52:45;17.40;99.90
50013;DHT22;35901;48.694;9.476;2023-05-15T08:55:16;18.00;99.90
50013;DHT22;35901;48.694;9.476;2023-05-15T08:57:43;18.70;99.90
50013;DHT22;35901;48.694;9.476;2023-05-15T09:00:10;19.00;99.90
50013;DHT22;35901;48.694;9.476;2023-05-15T09:02:39;19.00;99.90
50013;DHT22;35901;48.694;9.476;2023-05-15T09:05:05;18.70;99.90
50013;DHT22;35901;48.694;9.476;2023-05-15T09:07:32;18.40;99.90
50013;DHT22;35901;48.694;9.476;2023-05-15T09:09:58;18.40;99.90
50013;DHT22;35901;48.694;9.476;2023-05-15T09:12:26;18.50;99.90
50013;DHT22;35901;48.694;9.476;2023-05-15T09:15:13;18.80;99.90
50013;DHT22;35901;48.694;9.476;2023-05-15T09:17:40;18.70;99.90
50013;DHT22;35901;48.694;9.476;2023-05-15T09:20:33;19.30;99.90
50013;DHT22;35901;48.694;9.476;2023-05-15T09:23:02;19.60;99.90
50013;DHT22;35901;48.694;9.476;2023-05-15T09:25:38;19.70;99.90
50013;DHT22;35901;48.694;9.476;2023-05-15T09:30:49;20.40;99.90
50013;DHT22;35901;48.694;9.476;2023-05-15T09:33:26;20.40;99.90
50013;DHT22;35901;48.694;9.476;2023-05-15T09:35:52;20.00;99.90
50013;DHT22;35901;48.694;9.476;2023-05-15T09:38:18;19.60;99.90
50013;DHT22;35901;48.694;9.476;2023-05-15T09:40:43;19.30;99.90
50013;DHT22;35901;48.694;9.476;2023-05-15T09:43:10;19.20;99.90
50013;DHT22;35901;48.694;9.476;2023-05-15T09:45:38;19.50;99.90
50013;DHT22;35901;48.694;9.476;2023-05-15T09:48:05;20.40;99.90
50013;DHT22;35901;48.694;9.476;2023-05-15T09:50:36;20.50;99.90
50013;DHT22;35901;48.694;9.476;2023-05-15T09:53:03;20.10;99.90
50013;DHT22;35901;48.694;9.476;2023-05-15T09:55:33;19.50;99.90
50013;DHT22;35901;48.694;9.476;2023-05-15T09:58:13;19.50;99.90
50013;DHT22;35901;48.694;9.476;2023-05-15T10:00:40;19.90;99.90
50013;DHT22;35901;48.694;9.476;2023-05-15T10:03:07;19.60;99.90
50013;DHT22;35901;48.694;9.476;2023-05-15T10:05:33;19.30;99.90
50013;DHT22;35901;48.694;9.476;2023-05-15T10:07:59;19.10;99.90
50013;DHT22;35901;48.694;9.476;2023-05-15T10:10:26;18.70;99.90
50013;DHT22;35901;48.694;9.476;2023-05-15T10:12:54;18.70;99.90
50013;DHT22;35901;48.694;9.476;2023-05-15T10:15:21;18.90;99.90
50013;DHT22;35901;48.694;9.476;2023-05-15T10:17:48;19.40;99.90
50013;DHT22;35901;48.694;9.476;2023-05-15T10:20:16;19.80;99.90
50013;DHT22;35901;48.694;9.476;2023-05-15T10:22:45;19.80;99.90
50013;DHT22;35901;48.694;9.476;2023-05-15T10:27:56;19.70;99.10
50013;DHT22;35901;48.694;9.476;2023-05-15T10:30:24;19.50;99.10
50013;DHT22;35901;48.694;9.476;2023-05-15T10:32:50;19.40;99.10
50013;DHT22;35901;48.694;9.476;2023-05-15T10:35:16;19.40;99.50
50013;DHT22;35901;48.694;9.476;2023-05-15T10:37:44;19.40;98.50
50013;DHT22;35901;48.694;9.476;2023-05-15T10:40:12;19.70;98.40
50013;DHT22;35901;48.694;9.476;2023-05-15T10:42:41;19.80;99.70
50013;DHT22;35901;48.694;9.476;2023-05-15T10:45:08;19.50;99.90
50013;DHT22;35901;48.694;9.476;2023-05-15T10:47:34;19.00;99.90
50013;DHT22;35901;48.694;9.476;2023-05-15T10:50:00;18.60;99.90
50013;DHT22;35901;48.694;9.476;2023-05-15T10:52:26;18.20;99.90
50013;DHT22;35901;48.694;9.476;2023-05-15T10:54:52;18.10;99.90
50013;DHT22;35901;48.694;9.476;2023-05-15T10:57:20;18.20;99.90
50013;DHT22;35901;48.694;9.476;2023-05-15T10:59:46;18.50;99.90
50013;DHT22;35901;48.694;9.476;2023-05-15T11:02:24;19.00;99.90
50013;DHT22;35901;48.694;9.476;2023-05-15T11:07:20;20.30;99.90
50013;DHT22;35901;48.694;9.476;2023-05-15T11:09:49;20.70;99.90
50013;DHT22;35901;48.694;9.476;2023-05-15T11:12:15;21.10;99.90
50013;DHT22;35901;48.694;9.476;2023-05-15T11:14:42;21.50;99.70
50013;DHT22;35901;48.694;9.476;2023-05-15T11:17:10;22.00;98.90
50013;DHT22;35901;48.694;9.476;2023-05-15T11:19:54;22.40;98.30
50013;DHT22;35901;48.694;9.476;2023-05-15T11:22:33;22.60;98.30
50013;DHT22;35901;48.694;9.476;2023-05-15T11:25:04;22.20;96.30
50013;DHT22;35901;48.694;9.476;2023-05-15T11:27:44;21.80;97.00
50013;DHT22;35901;48.694;9.476;2023-05-15T11:30:14;21.50;95.20
50013;DHT22;35901;48.694;9.476;2023-05-15T11:32:56;20.70;96.70
50013;DHT22;35901;48.694;9.476;2023-05-15T11:35:32;20.40;96.90
50013;DHT22;35901;48.694;9.476;2023-05-15T11:38:14;20.20;96.80
50013;DHT22;35901;48.694;9.476;2023-05-15T11:40:50;20.60;96.90
50013;DHT22;35901;48.694;9.476;2023-05-15T11:43:24;21.00;95.60
50013;DHT22;35901;48.694;9.476;2023-05-15T11:48:38;21.40;92.80
50013;DHT22;35901;48.694;9.476;2023-05-15T11:51:04;21.50;92.10
50013;DHT22;35901;48.694;9.476;2023-05-15T11:53:37;21.60;92.50
50013;DHT22;35901;48.694;9.476;2023-05-15T11:56:03;21.80;91.20
50013;DHT22;35901;48.694;9.476;2023-05-15T11:58:29;21.90;90.60
50013;DHT22;35901;48.694;9.476;2023-05-15T12:00:56;22.10;89.00
50013;DHT22;35901;48.694;9.476;2023-05-15T12:03:24;22.40;86.50
50013;DHT22;35901;48.694;9.476;2023-05-15T12:05:50;22.40;89.50
50013;DHT22;35901;48.694;9.476;2023-05-15T12:08:19;22.70;90.00
50013;DHT22;35901;48.694;9.476;2023-05-15T12:10:46;22.90;88.90
50013;DHT22;35901;48.694;9.476;2023-05-15T12:13:12;23.00;88.70
50013;DHT22;35901;48.694;9.476;2023-05-15T12:15:40;23.20;88.00
50013;DHT22;35901;48.694;9.476;2023-05-15T12:18:06;23.00;86.70
50013;DHT22;35901;48.694;9.476;2023-05-15T12:20:36;22.20;87.70
50013;DHT22;35901;48.694;9.476;2023-05-15T12:23:03;21.60;89.70
50013;DHT22;35901;48.694;9.476;2023-05-15T12:25:30;21.00;90.30
50013;DHT22;35901;48.694;9.476;2023-05-15T12:27:56;20.50;90.50
50013;DHT22;35901;48.694;9.476;2023-05-15T12:30:23;20.00;90.30
50013;DHT22;35901;48.694;9.476;2023-05-15T12:32:49;19.50;90.70
50013;DHT22;35901;48.694;9.476;2023-05-15T12:35:15;19.20;91.40
50013;DHT22;35901;48.694;9.476;2023-05-15T12:37:41;18.80;92.60
50013;DHT22;35901;48.694;9.476;2023-05-15T12:40:07;18.80;93.30
50013;DHT22;35901;48.694;9.476;2023-05-15T12:42:43;19.10;94.00
50013;DHT22;35901;48.694;9.476;2023-05-15T12:45:16;19.10;92.80
50013;DHT22;35901;48.694;9.476;2023-05-15T12:47:44;19.10;92.50
50013;DHT22;35901;48.694;9.476;2023-05-15T12:50:19;18.90;91.70
50013;DHT22;35901;48.694;9.476;2023-05-15T12:52:52;18.60;92.20
50013;DHT22;35901;48.694;9.476;2023-05-15T12:57:53;18.30;92.80
50013;DHT22;35901;48.694;9.476;2023-05-15T13:00:21;18.30;93.10
50013;DHT22;35901;48.694;9.476;2023-05-15T13:02:54;18.90;93.50
50013;DHT22;35901;48.694;9.476;2023-05-15T13:05:24;19.40;91.50
50013;DHT22;35901;48.694;9.476;2023-05-15T13:07:50;19.60;91.50
50013;DHT22;35901;48.694;9.476;2023-05-15T13:10:22;19.70;91.30
50013;DHT22;35901;48.694;9.476;2023-05-15T13:12:50;19.70;91.50
50013;DHT22;35901;48.694;9.476;2023-05-15T13:15:52;19.60;91.60
50013;DHT22;35901;48.694;9.476;2023-05-15T13:18:18;19.50;92.40
50013;DHT22;35901;48.694;9.476;2023-05-15T13:20:49;19.20;92.80
50013;DHT22;35901;48.694;9.476;2023-05-15T13:23:20;19.20;93.10
50013;DHT22;35901;48.694;9.476;2023-05-15T13:25:48;19.30;93.20
50013;DHT22;35901;48.694;9.476;2023-05-15T13:28:14;19.80;93.20
50013;DHT22;35901;48.694;9.476;2023-05-15T13:30:40;20.40;93.40
50013;DHT22;35901;48.694;9.476;2023-05-15T13:33:07;20.60;92.30
50013;DHT22;35901;48.694;9.476;2023-05-15T13:35:34;20.50;92.70
50013;DHT22;35901;48.694;9.476;2023-05-15T13:37:59;20.50;92.60
50013;DHT22;35901;48.694;9.476;2023-05-15T13:40:25;20.50;92.50
50013;DHT22;35901;48.694;9.476;2023-05-15T13:42:51;20.70;93.30
50013;DHT22;35901;48.694;9.476;2023-05-15T13:45:17;21.10;93.80
50013;DHT22;35901;48.694;9.476;2023-05-15T13:47:43;21.50;92.10
50013;DHT22;35901;48.694;9.476;2023-05-15T13:50:11;21.60;91.80
50013;DHT22;35901;48.694;9.476;2023-05-15T13:52:41;21.80;92.80
50013;DHT22;35901;48.694;9.476;2023-05-15T13:55:09;22.00;91.30
50013;DHT22;35901;48.694;9.476;2023-05-15T13:57:36;22.10;90.00
50013;DHT22;35901;48.694;9.476;2023-05-15T14:00:04;22.20;90.30
50013;DHT22;35901;48.694;9.476;2023-05-15T14:02:32;22.40;90.40
50013;DHT22;35901;48.694;9.476;2023-05-15T14:04:58;22.50;89.60
50013;DHT22;35901;48.694;9.476;2023-05-15T14:07:23;22.30;85.40
50013;DHT22;35901;48.694;9.476;2023-05-15T14:09:50;22.20;86.30
50013;DHT22;35901;48.694;9.476;2023-05-15T14:12:16;22.10;86.70
50013;DHT22;35901;48.694;9.476;2023-05-15T14:14:44;22.00;87.00
50013;DHT22;35901;48.694;9.476;2023-05-15T14:17:09;21.90;87.10
50013;DHT22;35901;48.694;9.476;2023-05-15T14:19:35;22.10;86.70
50013;DHT22;35901;48.694;9.476;2023-05-15T14:22:01;22.40;86.40
50013;DHT22;35901;48.694;9.476;2023-05-15T14:24:26;22.60;86.60
50013;DHT22;35901;48.694;9.476;2023-05-15T14:26:52;22.70;83.10
50013;DHT22;35901;48.694;9.476;2023-05-15T14:29:18;22.80;84.00
50013;DHT22;35901;48.694;9.476;2023-05-15T14:31:44;22.90;85.00
50013;DHT22;35901;48.694;9.476;2023-05-15T14:34:09;23.10;84.50
50013;DHT22;35901;48.694;9.476;2023-05-15T14:36:35;22.50;81.50
50013;DHT22;35901;48.694;9.476;2023-05-15T14:39:01;22.00;81.20
50013;DHT22;35901;48.694;9.476;2023-05-15T14:41:27;21.80;79.70
50013;DHT22;35901;48.694;9.476;2023-05-15T14:43:53;21.50;81.30
50013;DHT22;35901;48.694;9.476;2023-05-15T14:46:19;21.40;82.00
50013;DHT22;35901;48.694;9.476;2023-05-15T14:48:44;21.50;83.10
50013;DHT22;35901;48.694;9.476;2023-05-15T14:51:10;21.70;82.70
50013;DHT22;35901;48.694;9.476;2023-05-15T14:53:36;21.90;84.80
50013;DHT22;35901;48.694;9.476;2023-05-15T14:56:02;22.40;83.30
50013;DHT22;35901;48.694;9.476;2023-05-15T14:58:28;22.20;81.30
50013;DHT22;35901;48.694;9.476;2023-05-15T15:00:55;21.80;82.20
50013;DHT22;35901;48.694;9.476;2023-05-15T15:03:20;21.30;82.80
50013;DHT22;35901;48.694;9.476;2023-05-15T15:05:46;20.90;84.10
50013;DHT22;35901;48.694;9.476;2023-05-15T15:08:13;20.50;83.30
50013;DHT22;35901;48.694;9.476;2023-05-15T15:10:39;20.20;83.30
50013;DHT22;35901;48.694;9.476;2023-05-15T15:13:06;19.90;82.40
50013;DHT22;35901;48.694;9.476;2023-05-15T15:15:33;19.70;83.60
50013;DHT22;35901;48.694;9.476;2023-05-15T15:17:59;19.50;82.60
50013;DHT22;35901;48.694;9.476;2023-05-15T15:20:26;19.30;82.50
50013;DHT22;35901;48.694;9.476;2023-05-15T15:22:52;19.00;83.40
50013;DHT22;35901;48.694;9.476;2023-05-15T15:25:19;18.90;84.10
50013;DHT22;35901;48.694;9.476;2023-05-15T15:27:45;18.80;84.20
50013;DHT22;35901;48.694;9.476;2023-05-15T15:30:11;19.40;85.50
50013;DHT22;35901;48.694;9.476;2023-05-15T15:32:38;19.70;83.80
50013;DHT22;35901;48.694;9.476;2023-05-15T15:35:05;19.50;83.50
50013;DHT22;35901;48.694;9.476;2023-05-15T15:37:32;19.20;83.50
50013;DHT22;35901;48.694;9.476;2023-05-15T15:39:59;19.00;84.60
50013;DHT22;35901;48.694;9.476;2023-05-15T15:42:25;18.80;85.40
50013;DHT22;35901;48.694;9.476;2023-05-15T15:44:55;18.70;86.00
50013;DHT22;35901;48.694;9.476;2023-05-15T15:47:21;18.80;87.20
50013;DHT22;35901;48.694;9.476;2023-05-15T15:49:49;18.70;90.20
50013;DHT22;35901;48.694;9.476;2023-05-15T15:52:15;18.90;91.50
50013;DHT22;35901;48.694;9.476;2023-05-15T15:54:40;18.70;91.90
50013;DHT22;35901;48.694;9.476;2023-05-15T15:57:12;18.50;92.20
50013;DHT22;35901;48.694;9.476;2023-05-15T15:59:38;18.20;92.70
50013;DHT22;35901;48.694;9.476;2023-05-15T16:02:05;18.00;93.00